Jock — WDF2423 — position and weather

sailwx.info

Track history (hours):
 
Tides and Currents Weather Stations Pressure Air Temp Water Temp Dewpoint Dewpoint Depression Visibility Wind Speed Wind Dir Waves Ship Positions

Jock

Owner: Enterprise Marine Services, LLC, San Antonio, TX. More information available from US FCC via Universal Licensing System and Coast Guard Vessel Documentation Center.

Last reported at 2014-Dec-10 04:20 UTC. Time now 2014-Dec-18 22:25 UTC.
Position N 29°54' W 091°13'.
Warning: this ship's position is 8 days out of date.

Length 28 m.

Type: Other ship. MMSI: 367003460.

Date/timePositionNaut miles runAvg speedWind from/ knotsBaromVisibWave heightAir tempDewpointWater temp
2014-Dec-10 04:20N 29°54' W 091°13'4 4.4
2014-Dec-10 03:28N 29°50' W 091°11'4 4.4
2014-Dec-10 02:33N 29°46' W 091°11'4 3.8
2014-Dec-10 01:33N 29°43' W 091°13'4 4.4
2014-Dec-10 00:33N 29°39' W 091°15'1 1.2
2014-Dec-09 23:33N 29°39' W 091°17'0 0.3
2014-Dec-09 22:33N 29°39' W 091°17'4 3.8
2014-Dec-09 21:28N 29°39' W 091°22'  
2014-Dec-07 02:33N 29°31' W 094°53'5 4.8
2014-Dec-07 01:33N 29°35' W 094°56'4 4.5
2014-Dec-07 00:33N 29°39' W 094°58'5 4.8
2014-Dec-06 23:33N 29°43' W 095°01'1 0.7
2014-Dec-06 22:33N 29°44' W 095°01'0 0.0
2014-Dec-06 21:32N 29°44' W 095°01'0 0.0
2014-Dec-06 20:33N 29°44' W 095°01'0 0.0
2014-Dec-06 19:30N 29°44' W 095°01'0 0.0
2014-Dec-06 18:25N 29°44' W 095°01'0 0.0
2014-Dec-06 17:33N 29°44' W 095°01'0 0.0
2014-Dec-06 16:32N 29°44' W 095°01'0 0.1
2014-Dec-06 15:33N 29°44' W 095°01'0 0.0
2014-Dec-06 14:33N 29°44' W 095°01'0 0.0
2014-Dec-06 13:33N 29°44' W 095°01'0 0.0
2014-Dec-06 12:32N 29°44' W 095°01'0 0.0
2014-Dec-06 11:33N 29°44' W 095°01'0 0.0
2014-Dec-06 10:33N 29°44' W 095°01'0 0.0
2014-Dec-06 09:33N 29°44' W 095°01'0 0.0
2014-Dec-06 08:33N 29°44' W 095°01'0 0.0
2014-Dec-06 07:33N 29°44' W 095°01'0 0.0
2014-Dec-06 06:33N 29°44' W 095°01'0 0.0
2014-Dec-06 05:33N 29°44' W 095°01'0 0.0
2014-Dec-06 04:33N 29°44' W 095°01'0 0.0
2014-Dec-06 03:33N 29°44' W 095°01'0 0.0
2014-Dec-06 02:33N 29°44' W 095°01'0 0.0
2014-Dec-06 01:33N 29°44' W 095°01'0 0.0
2014-Dec-06 00:32N 29°44' W 095°01'0 0.0
2014-Dec-05 23:22N 29°44' W 095°01'0 0.0
2014-Dec-05 22:33N 29°44' W 095°01'0 0.1
2014-Dec-05 21:33N 29°44' W 095°01'0 0.0
2014-Dec-05 20:33N 29°44' W 095°01'0 0.0
2014-Dec-05 19:33N 29°44' W 095°01'0 0.0
2014-Dec-05 18:33N 29°44' W 095°01'3 2.6
2014-Dec-05 17:33N 29°45' W 095°04'2 2.5
2014-Dec-05 16:33N 29°47' W 095°04'1 0.7
2014-Dec-05 15:33N 29°47' W 095°05'0 0.1
2014-Dec-05 14:33N 29°47' W 095°05'0 0.0
2014-Dec-04 21:26N 29°47' W 095°05'0 0.0
2014-Dec-04 20:33N 29°47' W 095°05'0 0.0
2014-Dec-04 19:33N 29°47' W 095°05'0 0.0
2014-Dec-04 18:14N 29°47' W 095°05'0 0.0
2014-Dec-04 17:25N 29°47' W 095°05'0 0.0
2014-Dec-04 16:33N 29°47' W 095°05'0 0.0
2014-Dec-04 15:33N 29°47' W 095°05'0 0.0
2014-Dec-04 14:33N 29°47' W 095°05'1 0.1
2014-Dec-03 23:10N 29°46' W 095°06'0 0.0
2014-Dec-03 22:13N 29°46' W 095°06'0 0.0
2014-Dec-03 16:25N 29°46' W 095°06'0 0.0
2014-Dec-03 15:33N 29°46' W 095°06'0 0.0
2014-Dec-03 14:33N 29°46' W 095°06'1 0.1
2014-Dec-02 23:14N 29°47' W 095°05'0 0.0
2014-Dec-02 22:33N 29°47' W 095°05'0 0.0
2014-Dec-02 21:31N 29°47' W 095°05'0 0.0
2014-Dec-02 20:20N 29°47' W 095°05'0 0.0
2014-Dec-02 19:33N 29°47' W 095°05'0 0.0
2014-Dec-02 18:33N 29°47' W 095°05'0 0.0
2014-Dec-02 17:33N 29°47' W 095°05'0 0.0
2014-Dec-02 16:33N 29°47' W 095°05'0 0.0
2014-Dec-02 15:33N 29°47' W 095°05'0 0.3
2014-Dec-02 14:33N 29°47' W 095°05'0 0.3
2014-Dec-02 13:33N 29°47' W 095°05'0 0.0
2014-Dec-01 23:09N 29°47' W 095°05'0 0.1
2014-Dec-01 22:33N 29°47' W 095°05'0 0.1
2014-Dec-01 21:33N 29°47' W 095°05'0 0.0
2014-Dec-01 20:33N 29°47' W 095°05'0 0.0
2014-Dec-01 19:33N 29°47' W 095°05'0 0.0
2014-Dec-01 18:33N 29°47' W 095°05'0 0.0
2014-Dec-01 17:33N 29°47' W 095°05'0 0.0
2014-Dec-01 16:33N 29°47' W 095°05'0 0.0
2014-Dec-01 15:33N 29°47' W 095°05'0 0.0
2014-Dec-01 14:33N 29°47' W 095°05'0 0.0
2014-Dec-01 13:33N 29°47' W 095°05'0 0.0
2014-Dec-01 12:33N 29°47' W 095°05'0 0.0
2014-Dec-01 11:33N 29°47' W 095°05'0 0.0
2014-Dec-01 10:33N 29°47' W 095°05'0 0.0
2014-Dec-01 09:33N 29°47' W 095°05'0 0.0
2014-Dec-01 08:33N 29°47' W 095°05'0 0.0
2014-Dec-01 07:33N 29°47' W 095°05'0 0.0
2014-Dec-01 06:33N 29°47' W 095°05'0 0.0
2014-Dec-01 05:33N 29°47' W 095°05'0 0.0
2014-Dec-01 04:33N 29°47' W 095°05'0 0.0
2014-Dec-01 03:33N 29°47' W 095°05'0 0.0
2014-Dec-01 02:33N 29°47' W 095°05'0 0.0
2014-Dec-01 01:33N 29°47' W 095°05'0 0.0
2014-Dec-01 00:33N 29°47' W 095°05'0 0.0
2014-Nov-30 23:33N 29°47' W 095°05'0 0.0
2014-Nov-30 22:33N 29°47' W 095°05'0 0.0
2014-Nov-30 21:33N 29°47' W 095°05'0 0.0
2014-Nov-30 20:33N 29°47' W 095°05'0 0.0
2014-Nov-30 19:33N 29°47' W 095°05'0 0.0
2014-Nov-30 18:33N 29°47' W 095°05'0 0.0
2014-Nov-30 17:33N 29°47' W 095°05'0 0.0
2014-Nov-30 16:33N 29°47' W 095°05'0 0.0
2014-Nov-30 15:33N 29°47' W 095°05'0 0.0
2014-Nov-30 14:33N 29°47' W 095°05'0 0.0
2014-Nov-30 13:33N 29°47' W 095°05'0 0.0
2014-Nov-30 12:33N 29°47' W 095°05'0 0.0
2014-Nov-30 11:33N 29°47' W 095°05'0 0.0
2014-Nov-30 10:33N 29°47' W 095°05'0 0.0
2014-Nov-30 09:33N 29°47' W 095°05'0 0.0
2014-Nov-30 08:33N 29°47' W 095°05'0 0.0
2014-Nov-30 07:33N 29°47' W 095°05'0 0.0
2014-Nov-30 06:33N 29°47' W 095°05'0 0.0
2014-Nov-30 05:33N 29°47' W 095°05'0 0.0
2014-Nov-30 04:33N 29°47' W 095°05'  
Track history (hours):
 
Tides and Currents Weather Stations Pressure Air Temp Water Temp Dewpoint Dewpoint Depression Visibility Wind Speed Wind Dir Waves Ship Positions

Jock

Owner: Enterprise Marine Services, LLC, San Antonio, TX. More information available from US FCC via Universal Licensing System and Coast Guard Vessel Documentation Center.

Last reported at 2014-Dec-10 04:20 UTC. Time now 2014-Dec-18 22:25 UTC.
Position N 29°54' W 091°13'.
Warning: this ship's position is 8 days out of date.

Length 28 m.

Type: Other ship. MMSI: 367003460.

Date/timePositionNaut miles runAvg speedWind from/ knotsBaromVisibWave heightAir tempDewpointWater temp
2014-Dec-10 04:20N 29°54' W 091°13'4 4.4
2014-Dec-10 03:28N 29°50' W 091°11'4 4.4
2014-Dec-10 02:33N 29°46' W 091°11'4 3.8
2014-Dec-10 01:33N 29°43' W 091°13'4 4.4
2014-Dec-10 00:33N 29°39' W 091°15'1 1.2
2014-Dec-09 23:33N 29°39' W 091°17'0 0.3
2014-Dec-09 22:33N 29°39' W 091°17'4 3.8
2014-Dec-09 21:28N 29°39' W 091°22'  
2014-Dec-07 02:33N 29°31' W 094°53'5 4.8
2014-Dec-07 01:33N 29°35' W 094°56'4 4.5
2014-Dec-07 00:33N 29°39' W 094°58'5 4.8
2014-Dec-06 23:33N 29°43' W 095°01'1 0.7
2014-Dec-06 22:33N 29°44' W 095°01'0 0.0
2014-Dec-06 21:32N 29°44' W 095°01'0 0.0
2014-Dec-06 20:33N 29°44' W 095°01'0 0.0
2014-Dec-06 19:30N 29°44' W 095°01'0 0.0
2014-Dec-06 18:25N 29°44' W 095°01'0 0.0
2014-Dec-06 17:33N 29°44' W 095°01'0 0.0
2014-Dec-06 16:32N 29°44' W 095°01'0 0.1
2014-Dec-06 15:33N 29°44' W 095°01'0 0.0
2014-Dec-06 14:33N 29°44' W 095°01'0 0.0
2014-Dec-06 13:33N 29°44' W 095°01'0 0.0
2014-Dec-06 12:32N 29°44' W 095°01'0 0.0
2014-Dec-06 11:33N 29°44' W 095°01'0 0.0
2014-Dec-06 10:33N 29°44' W 095°01'0 0.0
2014-Dec-06 09:33N 29°44' W 095°01'0 0.0
2014-Dec-06 08:33N 29°44' W 095°01'0 0.0
2014-Dec-06 07:33N 29°44' W 095°01'0 0.0
2014-Dec-06 06:33N 29°44' W 095°01'0 0.0
2014-Dec-06 05:33N 29°44' W 095°01'0 0.0
2014-Dec-06 04:33N 29°44' W 095°01'0 0.0
2014-Dec-06 03:33N 29°44' W 095°01'0 0.0
2014-Dec-06 02:33N 29°44' W 095°01'0 0.0
2014-Dec-06 01:33N 29°44' W 095°01'0 0.0
2014-Dec-06 00:32N 29°44' W 095°01'0 0.0
2014-Dec-05 23:22N 29°44' W 095°01'0 0.0
2014-Dec-05 22:33N 29°44' W 095°01'0 0.1
2014-Dec-05 21:33N 29°44' W 095°01'0 0.0
2014-Dec-05 20:33N 29°44' W 095°01'0 0.0
2014-Dec-05 19:33N 29°44' W 095°01'0 0.0
2014-Dec-05 18:33N 29°44' W 095°01'3 2.6
2014-Dec-05 17:33N 29°45' W 095°04'2 2.5
2014-Dec-05 16:33N 29°47' W 095°04'1 0.7
2014-Dec-05 15:33N 29°47' W 095°05'0 0.1
2014-Dec-05 14:33N 29°47' W 095°05'0 0.0
2014-Dec-04 21:26N 29°47' W 095°05'0 0.0
2014-Dec-04 20:33N 29°47' W 095°05'0 0.0
2014-Dec-04 19:33N 29°47' W 095°05'0 0.0
2014-Dec-04 18:14N 29°47' W 095°05'0 0.0
2014-Dec-04 17:25N 29°47' W 095°05'0 0.0
2014-Dec-04 16:33N 29°47' W 095°05'0 0.0
2014-Dec-04 15:33N 29°47' W 095°05'0 0.0
2014-Dec-04 14:33N 29°47' W 095°05'1 0.1
2014-Dec-03 23:10N 29°46' W 095°06'0 0.0
2014-Dec-03 22:13N 29°46' W 095°06'0 0.0
2014-Dec-03 16:25N 29°46' W 095°06'0 0.0
2014-Dec-03 15:33N 29°46' W 095°06'0 0.0
2014-Dec-03 14:33N 29°46' W 095°06'1 0.1
2014-Dec-02 23:14N 29°47' W 095°05'0 0.0
2014-Dec-02 22:33N 29°47' W 095°05'0 0.0
2014-Dec-02 21:31N 29°47' W 095°05'0 0.0
2014-Dec-02 20:20N 29°47' W 095°05'0 0.0
2014-Dec-02 19:33N 29°47' W 095°05'0 0.0
2014-Dec-02 18:33N 29°47' W 095°05'0 0.0
2014-Dec-02 17:33N 29°47' W 095°05'0 0.0
2014-Dec-02 16:33N 29°47' W 095°05'0 0.0
2014-Dec-02 15:33N 29°47' W 095°05'0 0.3
2014-Dec-02 14:33N 29°47' W 095°05'0 0.3
2014-Dec-02 13:33N 29°47' W 095°05'0 0.0
2014-Dec-01 23:09N 29°47' W 095°05'0 0.1
2014-Dec-01 22:33N 29°47' W 095°05'0 0.1
2014-Dec-01 21:33N 29°47' W 095°05'0 0.0
2014-Dec-01 20:33N 29°47' W 095°05'0 0.0
2014-Dec-01 19:33N 29°47' W 095°05'0 0.0
2014-Dec-01 18:33N 29°47' W 095°05'0 0.0
2014-Dec-01 17:33N 29°47' W 095°05'0 0.0
2014-Dec-01 16:33N 29°47' W 095°05'0 0.0
2014-Dec-01 15:33N 29°47' W 095°05'0 0.0
2014-Dec-01 14:33N 29°47' W 095°05'0 0.0
2014-Dec-01 13:33N 29°47' W 095°05'0 0.0
2014-Dec-01 12:33N 29°47' W 095°05'0 0.0
2014-Dec-01 11:33N 29°47' W 095°05'0 0.0
2014-Dec-01 10:33N 29°47' W 095°05'0 0.0
2014-Dec-01 09:33N 29°47' W 095°05'0 0.0
2014-Dec-01 08:33N 29°47' W 095°05'0 0.0
2014-Dec-01 07:33N 29°47' W 095°05'0 0.0
2014-Dec-01 06:33N 29°47' W 095°05'0 0.0
2014-Dec-01 05:33N 29°47' W 095°05'0 0.0
2014-Dec-01 04:33N 29°47' W 095°05'0 0.0
2014-Dec-01 03:33N 29°47' W 095°05'0 0.0
2014-Dec-01 02:33N 29°47' W 095°05'0 0.0
2014-Dec-01 01:33N 29°47' W 095°05'0 0.0
2014-Dec-01 00:33N 29°47' W 095°05'0 0.0
2014-Nov-30 23:33N 29°47' W 095°05'0 0.0
2014-Nov-30 22:33N 29°47' W 095°05'0 0.0
2014-Nov-30 21:33N 29°47' W 095°05'0 0.0
2014-Nov-30 20:33N 29°47' W 095°05'0 0.0
2014-Nov-30 19:33N 29°47' W 095°05'0 0.0
2014-Nov-30 18:33N 29°47' W 095°05'0 0.0
2014-Nov-30 17:33N 29°47' W 095°05'0 0.0
2014-Nov-30 16:33N 29°47' W 095°05'0 0.0
2014-Nov-30 15:33N 29°47' W 095°05'0 0.0
2014-Nov-30 14:33N 29°47' W 095°05'0 0.0
2014-Nov-30 13:33N 29°47' W 095°05'0 0.0
2014-Nov-30 12:33N 29°47' W 095°05'0 0.0
2014-Nov-30 11:33N 29°47' W 095°05'0 0.0
2014-Nov-30 10:33N 29°47' W 095°05'0 0.0
2014-Nov-30 09:33N 29°47' W 095°05'0 0.0
2014-Nov-30 08:33N 29°47' W 095°05'0 0.0
2014-Nov-30 07:33N 29°47' W 095°05'0 0.0
2014-Nov-30 06:33N 29°47' W 095°05'0 0.0
2014-Nov-30 05:33N 29°47' W 095°05'0 0.0
2014-Nov-30 04:33N 29°47' W 095°05'  

Dump ship's entire track history